Terminal Aerodrome Forecast
Issued by NWS Albany, NY

Current Version | Previous Version | Text Only | Print | Product List | Glossary On
Versions: 1 2 3 4 5 6 7 8 9 10 11 12 13 14 15 16 17 18 19 20 21 22 23 24 25 26
000
FTUS41 KALY 282221 AAD
TAFGFL
TAF AMD
KGFL 282221Z 2822/2918 27007KT P6SM BKN050
     FM290000 32007KT P6SM SKC
     FM290400 VRB02KT P6SM SKC
     FM290700 00000KT 3SM BR SCT003
     FM291400 VRB05KT P6SM SCT035=

USA.gov is the U.S. government's official web portal to all federal, state and local government web resources and services.